createdAt,value
2023-07-22T00:04:48.472Z,1013.2
2023-07-22T00:59:18.902Z,1013.2
2023-07-22T01:04:19.216Z,1013.2
2023-07-22T01:09:18.927Z,1013.1
2023-07-22T01:14:19.271Z,1013.1
2023-07-22T01:19:19.195Z,1013
2023-07-22T01:24:18.744Z,1013.1
2023-07-22T01:29:20.268Z,1013.1
2023-07-22T01:34:16.406Z,1013.1
2023-07-22T01:39:16.325Z,1013
2023-07-22T01:44:16.196Z,1012.9
2023-07-22T01:49:15.281Z,1013
2023-07-22T01:54:15.448Z,1013
2023-07-22T01:59:15.494Z,1013
2023-07-22T02:04:15.699Z,1013.1
2023-07-22T02:09:16.361Z,1012.9
2023-07-22T02:14:12.656Z,1013.1
2023-07-22T02:19:12.112Z,1013.1
2023-07-22T02:24:12.394Z,1013.1
2023-07-22T02:29:12.155Z,1013.1
2023-07-22T02:34:09.670Z,1013.2
2023-07-22T02:39:10.054Z,1013.2
2023-07-22T02:44:09.833Z,1013.2
2023-07-22T02:49:11.278Z,1013.3
2023-07-22T02:54:07.374Z,1013.3
2023-07-22T02:59:07.132Z,1013.4
2023-07-22T03:00:38.576Z,1013.3
2023-07-22T03:59:42.983Z,1013.6
2023-07-22T04:04:42.734Z,1013.5
2023-07-22T04:09:52.137Z,1013.6
2023-07-22T04:14:42.704Z,1013.7
2023-07-22T04:24:51.471Z,1013.8
2023-07-22T04:34:51.065Z,1013.8
2023-07-22T04:49:50.326Z,1013.9
2023-07-22T04:54:49.144Z,1013.8
2023-07-22T05:04:31.975Z,1013.9
2023-07-22T05:09:31.689Z,1013.9
2023-07-22T05:19:30.357Z,1013.8
2023-07-22T05:24:30.263Z,1013.8
2023-07-22T05:34:31.379Z,1013.8
2023-07-22T05:39:27.450Z,1013.8
2023-07-22T05:49:27.590Z,1014
2023-07-22T05:54:25.995Z,1013.8
2023-07-22T05:59:12.642Z,1013.9
2023-07-22T06:04:12.751Z,1013.9
2023-07-22T06:09:12.769Z,1013.9
2023-07-22T06:14:10.329Z,1014
2023-07-22T06:19:09.832Z,1014
2023-07-22T06:24:10.191Z,1014
2023-07-22T06:29:10.340Z,1013.9
2023-07-22T06:34:07.940Z,1013.9
2023-07-22T06:39:07.335Z,1014
2023-07-22T06:44:07.444Z,1014
2023-07-22T06:49:07.353Z,1014
2023-07-22T06:54:06.739Z,1014
2023-07-22T06:58:53.002Z,1014
2023-07-22T07:03:52.895Z,1014
2023-07-22T07:08:52.347Z,1013.9
2023-07-22T07:13:53.692Z,1013.9
2023-07-22T07:18:50.746Z,1013.9
2023-07-22T07:23:50.867Z,1013.9
2023-07-22T07:28:50.768Z,1013.9
2023-07-22T07:33:50.043Z,1013.9
2023-07-22T07:38:50.277Z,1014
2023-07-22T07:43:50.251Z,1014
2023-07-22T07:48:51.126Z,1013.9
2023-07-22T07:53:48.645Z,1014
2023-07-22T07:58:48.162Z,1014
2023-07-22T08:00:19.526Z,1014
2023-07-22T08:05:10.309Z,1014
2023-07-22T08:10:09.681Z,1014
2023-07-22T08:15:09.895Z,1014
2023-07-22T08:20:09.856Z,1014
2023-07-22T08:25:10.324Z,1014
2023-07-22T08:30:10.759Z,1014
2023-07-22T08:35:06.936Z,1014.1
2023-07-22T08:40:06.576Z,1014
2023-07-22T08:45:07.018Z,1013.9
2023-07-22T08:50:06.803Z,1013.9
2023-07-22T08:55:06.895Z,1013.9
2023-07-22T08:59:42.892Z,1013.9
2023-07-22T09:04:42.289Z,1013.8
2023-07-22T09:15:06.738Z,1013.8
2023-07-22T09:19:51.768Z,1013.9
2023-07-22T09:24:52.497Z,1013.8
2023-07-22T09:29:43.496Z,1013.8
2023-07-22T09:34:49.950Z,1013.8
2023-07-22T09:39:50.569Z,1013.8
2023-07-22T09:44:50.946Z,1013.7
2023-07-22T09:49:48.943Z,1013.7
2023-07-22T09:54:48.942Z,1013.7
2023-07-22T09:59:25.813Z,1013.5
2023-07-22T10:04:27.316Z,1013.6
2023-07-22T10:09:23.373Z,1013.5
2023-07-22T10:14:22.972Z,1013.5
2023-07-22T10:19:23.256Z,1013.5
2023-07-22T10:24:23.354Z,1013.4
2023-07-22T10:29:20.435Z,1013.5
2023-07-22T10:34:20.444Z,1013.4
2023-07-22T10:39:20.471Z,1013.5
2023-07-22T10:44:21.283Z,1013.4
2023-07-22T10:49:17.556Z,1013.4
2023-07-22T10:54:17.046Z,1013.4
2023-07-22T10:59:17.444Z,1013.4
2023-07-22T11:04:17.221Z,1013.4
2023-07-22T11:09:14.751Z,1013.4
2023-07-22T11:14:15.135Z,1013.4
2023-07-22T11:19:15.072Z,1013.4
2023-07-22T11:24:14.897Z,1013.4
2023-07-22T11:29:14.281Z,1013.3
2023-07-22T11:34:14.374Z,1013.4
2023-07-22T11:39:14.428Z,1013.5
2023-07-22T11:44:13.818Z,1013.5
2023-07-22T11:49:18.210Z,1013.6
2023-07-22T11:54:11.548Z,1013.8
2023-07-22T11:59:11.213Z,1013.8
2023-07-22T12:04:11.632Z,1013.7
2023-07-22T12:09:10.040Z,1013.7
2023-07-22T12:14:11.814Z,1013.8
2023-07-22T12:19:10.094Z,1013.7
2023-07-22T12:24:09.656Z,1013.7
2023-07-22T12:29:11.067Z,1013.7
2023-07-22T12:34:07.254Z,1013.5
2023-07-22T12:39:06.859Z,1013.7
2023-07-22T12:44:07.227Z,1013.6
2023-07-22T12:49:06.928Z,1013.5
2023-07-22T12:54:04.279Z,1013.4
2023-07-22T12:59:03.680Z,1013.4
2023-07-22T13:00:34.970Z,1013.4
2023-07-22T13:59:51.655Z,1013.4
2023-07-22T14:04:52.199Z,1013.3
2023-07-22T14:09:49.514Z,1013.3
2023-07-22T14:14:49.775Z,1013.3
2023-07-22T14:19:50.393Z,1013.4
2023-07-22T14:24:49.216Z,1013.4
2023-07-22T14:29:49.515Z,1013.4
2023-07-22T14:34:48.470Z,1013.4
2023-07-22T14:39:50.141Z,1013.3
2023-07-22T14:44:47.122Z,1013.3
2023-07-22T14:49:47.646Z,1013.3
2023-07-22T14:54:49.787Z,1013.3
2023-07-22T14:59:22.224Z,1013.4
2023-07-22T15:04:21.775Z,1013.3
2023-07-22T15:09:22.157Z,1013.2
2023-07-22T15:14:21.996Z,1013.2
2023-07-22T15:19:19.373Z,1013.2
2023-07-22T15:24:19.562Z,1013
2023-07-22T15:29:19.185Z,1013.1
2023-07-22T15:34:20.540Z,1012.9
2023-07-22T15:39:16.938Z,1012.8
2023-07-22T15:44:16.389Z,1012.7
2023-07-22T15:49:16.668Z,1012.7
2023-07-22T15:54:16.765Z,1012.8
2023-07-22T15:59:14.292Z,1012.8
2023-07-22T16:04:14.003Z,1012.7
2023-07-22T16:09:14.026Z,1012.8
2023-07-22T16:14:13.725Z,1012.7
2023-07-22T16:19:13.158Z,1012.8
2023-07-22T16:24:13.213Z,1012.7
2023-07-22T16:29:15.107Z,1012.9
2023-07-22T16:34:12.369Z,1012.8
2023-07-22T16:39:13.818Z,1012.8
2023-07-22T16:44:10.003Z,1012.9
2023-07-22T16:49:09.759Z,1012.8
2023-07-22T16:54:10.141Z,1012.8
2023-07-22T16:59:09.754Z,1012.7
2023-07-22T17:00:41.149Z,1012.7
2023-07-22T17:15:33.148Z,1012.6
2023-07-22T17:59:29.159Z,1012.3
2023-07-22T18:14:29.181Z,1012.1
2023-07-22T18:29:26.362Z,1012.2
2023-07-22T18:34:26.561Z,1012.2
2023-07-22T19:04:23.146Z,1012.1
2023-07-22T19:14:23.059Z,1012.1
2023-07-22T19:19:22.822Z,1012
2023-07-22T19:29:19.872Z,1011.9
2023-07-22T19:34:20.074Z,1012
2023-07-22T19:44:18.905Z,1012.1
2023-07-22T19:49:19.149Z,1012.1
2023-07-22T19:59:18.923Z,1012.2
2023-07-22T20:04:20.505Z,1012.1
2023-07-22T20:09:16.388Z,1012.1
2023-07-22T20:14:16.010Z,1012.2
2023-07-22T20:19:16.358Z,1012.1
2023-07-22T20:24:15.824Z,1012.1
2023-07-22T20:29:16.134Z,1012.1
2023-07-22T20:34:15.668Z,1012.1
2023-07-22T20:39:15.096Z,1012.2
2023-07-22T20:44:16.341Z,1012.2
2023-07-22T20:49:12.342Z,1012.2
2023-07-22T20:54:11.910Z,1012.2
2023-07-22T20:59:12.175Z,1012.2
2023-07-22T21:04:12.148Z,1012.2
2023-07-22T21:09:09.502Z,1012.2
2023-07-22T21:14:09.150Z,1012.2
2023-07-22T21:19:09.163Z,1012.2
2023-07-22T21:24:08.873Z,1012.1
2023-07-22T21:29:08.217Z,1012.1
2023-07-22T21:34:15.217Z,1012
2023-07-22T21:39:08.493Z,1012
2023-07-22T21:44:08.055Z,1011.9
2023-07-22T21:49:09.438Z,1011.9
2023-07-22T21:54:05.612Z,1011.9
2023-07-22T21:59:05.860Z,1011.8
2023-07-22T22:00:37.481Z,1011.9
2023-07-22T22:55:22.660Z,1011.4
2023-07-22T22:59:26.411Z,1011.4
2023-07-22T23:04:27.887Z,1011.4
2023-07-22T23:14:23.645Z,1011.4
2023-07-22T23:19:23.982Z,1011.4
2023-07-22T23:29:22.103Z,1011.2
2023-07-22T23:34:21.962Z,1011.1
2023-07-22T23:44:22.690Z,1011
2023-07-22T23:49:18.798Z,1011
2023-07-22T23:59:18.564Z,1011
